Time;durP1;ratioP1;P1;durP2;ratioP2;P2;SDS_P1;SDS_P2;PMS_P1;PMS_P2;Temp;Humidity;BMP_temperature;BMP_pressure;BME280_temperature;BME280_humidity;BME280_pressure;Samples;Min_cycle;Max_cycle;Signal;HPM_P1;HPM_P2
2022/10/03 00:02:31;;;;;;;6.55;2.20;;;11.80;65.30;;;;;;5042798;28;20036;-74
2022/10/03 00:05:28;;;;;;;4.82;2.45;;;11.70;65.20;;;;;;5046637;28;20051;-76
2022/10/03 00:08:00;;;;;;;5.60;2.20;;;11.80;65.40;;;;;;5047961;28;20555;-74
2022/10/03 00:10:51;;;;;;;4.68;2.20;;;11.70;65.20;;;;;;5030104;28;20259;-76
2022/10/03 00:13:34;;;;;;;2.83;1.98;;;11.70;65.30;;;;;;5039900;28;20033;-75
2022/10/03 00:16:33;;;;;;;5.22;2.35;;;11.60;65.10;;;;;;5040056;28;20074;-75
2022/10/03 00:19:17;;;;;;;5.68;2.35;;;11.60;65.20;;;;;;5046216;28;20033;-75
2022/10/03 00:21:59;;;;;;;4.47;2.00;;;11.60;65.20;;;;;;5042205;28;20179;-75
2022/10/03 00:25:07;;;;;;;6.30;2.50;;;11.60;65.40;;;;;;5033120;28;20074;-74
2022/10/03 00:28:08;;;;;;;5.72;2.72;;;11.50;65.30;;;;;;5039141;28;20048;-75
2022/10/03 00:30:53;;;;;;;5.35;3.03;;;11.50;65.40;;;;;;5039377;28;20048;-75
2022/10/03 00:33:45;;;;;;;5.47;2.83;;;11.50;65.40;;;;;;5052976;28;20033;-75
2022/10/03 00:36:29;;;;;;;6.47;2.42;;;11.40;65.30;;;;;;5041146;28;20044;-75
2022/10/03 00:39:24;;;;;;;3.33;2.15;;;11.40;65.30;;;;;;5052430;28;20045;-73
2022/10/03 00:42:19;;;;;;;5.15;2.58;;;11.40;65.50;;;;;;5038381;28;20492;-75
2022/10/03 00:45:09;;;;;;;3.97;2.28;;;11.30;65.30;;;;;;5044846;28;20485;-75
2022/10/03 00:47:55;;;;;;;5.15;2.42;;;11.30;65.40;;;;;;5055494;28;20369;-74
2022/10/03 00:50:54;;;;;;;6.38;2.85;;;11.30;65.50;;;;;;5046836;28;20048;-74
2022/10/03 00:53:36;;;;;;;3.67;2.33;;;11.30;65.60;;;;;;5048464;28;20506;-75
2022/10/03 00:56:02;;;;;;;3.67;2.45;;;11.30;65.50;;;;;;5052234;28;20045;-74
2022/10/03 00:58:50;;;;;;;6.25;2.50;;;11.30;65.60;;;;;;5048851;28;20090;-74
2022/10/03 01:01:47;;;;;;;7.90;3.97;;;11.20;65.50;;;;;;5043677;28;20581;-74
2022/10/03 01:04:46;;;;;;;7.43;3.00;;;11.20;65.60;;;;;;5049501;28;20021;-74
2022/10/03 01:08:06;;;;;;;8.20;2.83;;;11.20;65.60;;;;;;5047687;28;20039;-74
2022/10/03 01:11:06;;;;;;;7.20;2.97;;;11.20;65.70;;;;;;5029760;28;20715;-74
2022/10/03 01:13:45;;;;;;;5.80;2.60;;;11.20;65.70;;;;;;5045420;28;20041;-75
2022/10/03 01:16:39;;;;;;;5.97;3.15;;;11.10;65.50;;;;;;5052496;28;20068;-75
2022/10/03 01:19:27;;;;;;;6.75;2.92;;;11.10;65.70;;;;;;5041391;28;20042;-74
2022/10/03 01:22:10;;;;;;;6.50;3.85;;;11.10;65.70;;;;;;5046120;28;20037;-75
2022/10/03 01:24:49;;;;;;;6.05;2.70;;;11.10;65.70;;;;;;5052187;28;20025;-75
2022/10/03 01:30:21;;;;;;;6.13;4.18;;;11.10;65.70;;;;;;5045622;28;20025;-75
2022/10/03 01:30:46;;;;;;;6.20;3.53;;;11.10;65.80;;;;;;5038649;28;20710;-74
2022/10/03 01:33:37;;;;;;;8.45;3.00;;;11.00;65.70;;;;;;5039641;28;20403;-73
2022/10/03 01:36:24;;;;;;;8.30;3.03;;;11.00;65.80;;;;;;5046755;28;20028;-74
2022/10/03 01:39:10;;;;;;;9.25;3.75;;;11.00;65.80;;;;;;5044049;28;20033;-72
2022/10/03 01:42:22;;;;;;;5.25;3.00;;;11.00;65.90;;;;;;5040380;28;20037;-74
2022/10/03 01:45:06;;;;;;;6.07;3.80;;;11.00;65.90;;;;;;5062433;28;20468;-76
2022/10/03 01:47:38;;;;;;;5.80;3.45;;;11.00;66.00;;;;;;5065930;28;20041;-75
2022/10/03 01:50:17;;;;;;;5.97;3.53;;;11.00;66.00;;;;;;5035156;28;20053;-77
2022/10/03 01:53:19;;;;;;;13.73;3.72;;;11.00;66.10;;;;;;5052167;28;20075;-74
2022/10/03 01:55:55;;;;;;;5.18;3.85;;;11.00;66.20;;;;;;5054052;28;20106;-75
2022/10/03 01:58:34;;;;;;;7.93;3.33;;;11.00;66.10;;;;;;5049401;28;20056;-74
2022/10/03 02:01:23;;;;;;;7.43;3.60;;;11.00;66.20;;;;;;5048625;28;20029;-75
2022/10/03 02:04:11;;;;;;;9.00;3.45;;;11.00;66.30;;;;;;5049857;28;20037;-76
2022/10/03 02:06:49;;;;;;;9.05;4.97;;;11.00;66.30;;;;;;5047270;28;20033;-74
2022/10/03 02:09:28;;;;;;;6.80;3.78;;;11.00;66.30;;;;;;5053015;28;20033;-75
2022/10/03 02:12:33;;;;;;;8.30;3.28;;;11.00;66.40;;;;;;5044786;28;20037;-74
2022/10/03 02:15:25;;;;;;;5.22;3.42;;;11.00;66.50;;;;;;5034716;28;20286;-74
2022/10/03 02:17:59;;;;;;;7.65;3.55;;;11.00;66.50;;;;;;5036686;28;20633;-76
2022/10/03 02:20:50;;;;;;;6.78;4.07;;;11.00;66.50;;;;;;5048390;28;20029;-75
2022/10/03 02:23:31;;;;;;;8.40;3.85;;;11.00;66.50;;;;;;5051685;28;20040;-75
2022/10/03 02:26:02;;;;;;;5.32;3.13;;;11.00;66.50;;;;;;5050154;28;20029;-75
2022/10/03 02:28:43;;;;;;;9.43;3.53;;;11.10;66.70;;;;;;5050343;28;20090;-75
2022/10/03 02:31:40;;;;;;;5.80;3.17;;;11.10;66.80;;;;;;5055224;28;20037;-74
2022/10/03 02:34:23;;;;;;;8.02;3.58;;;11.10;66.90;;;;;;5042068;28;20059;-75
2022/10/03 02:37:31;;;;;;;6.03;3.95;;;11.10;67.30;;;;;;5049714;28;20021;-75
2022/10/03 02:40:23;;;;;;;8.88;3.38;;;11.10;66.90;;;;;;5045094;28;20044;-75
2022/10/03 02:43:01;;;;;;;6.60;3.83;;;11.10;66.80;;;;;;5064650;28;20411;-75
2022/10/03 02:46:01;;;;;;;6.20;3.35;;;11.10;66.70;;;;;;5051463;28;20045;-75
2022/10/03 02:48:36;;;;;;;8.07;4.25;;;11.20;67.10;;;;;;5051046;28;20049;-75
2022/10/03 02:51:37;;;;;;;6.75;4.07;;;11.10;66.80;;;;;;5051644;28;20079;-75
2022/10/03 02:54:38;;;;;;;7.97;3.85;;;11.20;67.10;;;;;;5058671;28;20052;-74
2022/10/03 02:57:31;;;;;;;8.10;4.88;;;11.20;67.10;;;;;;5060832;28;20047;-75
2022/10/03 03:00:19;;;;;;;5.60;3.30;;;11.20;67.10;;;;;;5037847;28;20034;-75
2022/10/03 03:02:48;;;;;;;5.78;3.67;;;11.20;67.00;;;;;;5054195;28;20041;-76
2022/10/03 03:05:50;;;;;;;5.25;3.70;;;11.20;67.00;;;;;;5031772;28;20032;-75
2022/10/03 03:08:53;;;;;;;8.38;3.40;;;11.20;67.30;;;;;;5051521;28;20496;-76
2022/10/03 03:11:55;;;;;;;6.67;3.17;;;11.20;67.30;;;;;;5047879;28;20542;-77
2022/10/03 03:14:39;;;;;;;9.40;3.88;;;11.30;67.40;;;;;;5048849;28;20307;-76
2022/10/03 03:17:14;;;;;;;5.25;3.50;;;11.30;67.30;;;;;;5019914;28;20034;-75
2022/10/03 03:20:17;;;;;;;5.13;2.97;;;11.30;67.90;;;;;;5053078;28;20032;-75
2022/10/03 03:22:58;;;;;;;6.35;3.58;;;11.30;67.50;;;;;;5038171;28;20052;-75
2022/10/03 03:26:00;;;;;;;6.00;3.33;;;11.30;67.50;;;;;;5038290;28;20051;-75
2022/10/03 03:29:13;;;;;;;6.75;3.78;;;11.30;67.50;;;;;;5042340;28;20044;-74
2022/10/03 03:32:02;;;;;;;9.85;3.60;;;11.30;67.50;;;;;;5020877;28;20868;-75
2022/10/03 03:34:41;;;;;;;6.50;3.15;;;11.30;67.50;;;;;;5017889;28;20048;-75
2022/10/03 03:37:19;;;;;;;7.63;3.38;;;11.30;67.50;;;;;;5046558;28;20037;-74
2022/10/03 03:40:06;;;;;;;8.23;3.83;;;11.30;68.10;;;;;;5048327;28;20090;-74
2022/10/03 03:43:02;;;;;;;6.18;3.22;;;11.30;67.50;;;;;;5050694;28;20033;-75
2022/10/03 03:45:49;;;;;;;6.65;3.25;;;11.40;67.80;;;;;;5063174;28;20055;-75
2022/10/03 03:48:27;;;;;;;5.68;2.78;;;11.40;67.70;;;;;;5053401;28;20032;-74
2022/10/03 03:51:04;;;;;;;6.37;3.27;;;11.40;67.70;;;;;;5049846;28;20033;-74
2022/10/03 03:53:36;;;;;;;7.25;2.80;;;11.40;67.70;;;;;;5051714;28;20541;-75
2022/10/03 03:56:21;;;;;;;7.70;3.80;;;11.40;67.70;;;;;;5052924;28;20065;-75
2022/10/03 03:59:16;;;;;;;7.88;3.53;;;11.40;67.70;;;;;;5053102;28;20086;-74
2022/10/03 04:02:12;;;;;;;5.63;2.72;;;11.50;67.90;;;;;;5053214;28;20025;-75
2022/10/03 04:04:50;;;;;;;10.43;3.53;;;11.50;67.90;;;;;;5053936;28;20037;-75
2022/10/03 04:07:30;;;;;;;5.32;3.40;;;11.50;67.90;;;;;;5054143;28;20100;-75
2022/10/03 04:10:35;;;;;;;7.07;4.03;;;11.50;67.90;;;;;;5050804;28;20112;-75
2022/10/03 04:13:12;;;;;;;6.90;3.15;;;11.50;68.00;;;;;;5046991;28;20036;-74
2022/10/03 04:15:53;;;;;;;9.70;3.38;;;11.50;67.90;;;;;;5043719;28;20040;-74
2022/10/03 04:21:26;;;;;;;10.07;3.78;;;11.40;67.80;;;;;;5054787;28;20044;-74
2022/10/03 04:24:15;;;;;;;6.03;3.22;;;11.40;67.70;;;;;;5058266;28;20066;-74
2022/10/03 04:27:26;;;;;;;5.38;3.30;;;11.50;68.10;;;;;;5051538;28;20114;-75
2022/10/03 04:30:03;;;;;;;4.90;2.80;;;11.40;67.90;;;;;;5029320;28;20395;-74
2022/10/03 04:32:41;;;;;;;5.35;3.03;;;11.40;67.80;;;;;;5047171;28;20436;-74
2022/10/03 04:35:45;;;;;;;8.93;3.47;;;11.40;67.90;;;;;;5053257;28;20033;-75
2022/10/03 04:38:31;;;;;;;;;;;11.40;68.00;;;;;;5043244;28;20064;-76
2022/10/03 04:41:08;;;;;;;7.40;3.92;;;11.40;67.80;;;;;;5042926;28;19972;-76
2022/10/03 04:43:51;;;;;;;9.10;3.50;;;11.40;67.70;;;;;;5059953;28;20123;-76
2022/10/03 04:46:41;;;;;;;6.30;3.00;;;11.40;67.90;;;;;;5049956;28;20154;-75
2022/10/03 04:49:22;;;;;;;6.95;3.30;;;11.40;67.90;;;;;;5041957;28;20222;-75
2022/10/03 04:52:32;;;;;;;8.75;2.90;;;11.50;68.00;;;;;;5042564;28;20725;-74
2022/10/03 04:55:20;;;;;;;6.57;2.80;;;11.50;68.10;;;;;;5047208;28;20114;-74
2022/10/03 04:57:59;;;;;;;5.35;2.63;;;11.40;67.80;;;;;;5040442;28;20430;-75
2022/10/03 05:00:34;;;;;;;6.85;2.80;;;11.50;68.10;;;;;;5043605;28;20014;-75
2022/10/03 05:03:21;;;;;;;7.80;4.00;;;11.40;67.90;;;;;;5048629;28;20036;-75
2022/10/03 05:06:05;;;;;;;9.88;3.22;;;11.40;68.00;;;;;;5044438;28;20175;-75
2022/10/03 05:09:24;;;;;;;6.63;2.97;;;11.40;68.00;;;;;;5046688;28;20023;-75
2022/10/03 05:12:16;;;;;;;8.38;3.53;;;11.50;68.20;;;;;;5024605;28;20057;-76
2022/10/03 05:15:02;;;;;;;5.28;2.58;;;11.50;68.10;;;;;;5045638;28;20035;-74
2022/10/03 05:17:59;;;;;;;9.23;3.42;;;11.50;68.10;;;;;;5047365;28;20032;-75
2022/10/03 05:20:46;;;;;;;6.70;3.00;;;11.40;68.00;;;;;;5049092;28;20033;-75
2022/10/03 05:23:49;;;;;;;6.15;2.90;;;11.40;67.90;;;;;;5042165;28;20090;-75
2022/10/03 05:26:32;;;;;;;9.98;3.08;;;11.40;68.00;;;;;;5045091;28;20568;-74
2022/10/03 05:29:36;;;;;;;4.30;2.38;;;11.40;67.90;;;;;;5046443;28;20025;-76
2022/10/03 05:32:11;;;;;;;8.38;3.80;;;11.40;68.00;;;;;;5036802;28;20040;-75
2022/10/03 05:35:09;;;;;;;6.75;3.40;;;11.50;68.10;;;;;;5042365;28;20029;-75
2022/10/03 05:38:16;;;;;;;10.02;3.08;;;11.50;68.10;;;;;;5044936;28;20587;-76
2022/10/03 05:41:06;;;;;;;9.07;3.30;;;11.50;68.10;;;;;;5045196;28;20029;-77
2022/10/03 05:44:08;;;;;;;5.18;2.83;;;11.50;68.10;;;;;;5026318;28;20037;-78
2022/10/03 05:47:02;;;;;;;8.25;3.20;;;11.50;68.00;;;;;;5035946;28;20399;-76
2022/10/03 05:50:27;;;;;;;7.20;3.00;;;11.50;68.00;;;;;;5045268;28;20040;-75
2022/10/03 05:52:53;;;;;;;9.43;3.38;;;11.60;68.10;;;;;;5033165;28;20654;-75
2022/10/03 05:55:25;;;;;;;6.60;2.78;;;11.60;68.10;;;;;;5044337;28;20056;-77
2022/10/03 05:58:09;;;;;;;8.95;2.88;;;11.50;67.90;;;;;;5047116;28;20032;-80
2022/10/03 06:01:16;;;;;;;8.02;2.88;;;11.50;67.90;;;;;;5039436;28;20486;-74
2022/10/03 06:03:55;;;;;;;7.60;3.13;;;11.50;68.00;;;;;;5031760;28;20029;-77
2022/10/03 06:06:59;;;;;;;9.45;3.30;;;11.60;68.10;;;;;;5044922;28;20033;-75
2022/10/03 06:09:47;;;;;;;7.00;2.53;;;11.50;68.00;;;;;;5041824;28;20037;-77
2022/10/03 06:12:34;;;;;;;9.93;3.83;;;11.50;68.10;;;;;;5052748;28;20548;-77
2022/10/03 06:15:18;;;;;;;9.88;5.80;;;11.60;68.60;;;;;;5054575;28;20121;-78
2022/10/03 06:18:08;;;;;;;12.18;5.30;;;11.70;69.40;;;;;;5046567;28;20033;-79
2022/10/03 06:21:03;;;;;;;10.65;4.30;;;11.90;70.20;;;;;;5051121;28;20339;-82
2022/10/03 06:24:08;;;;;;;10.27;4.93;;;12.10;70.90;;;;;;5056371;28;20032;-77
2022/10/03 06:26:49;;;;;;;8.95;4.07;;;12.30;71.40;;;;;;5047593;28;20507;-75
2022/10/03 06:29:41;;;;;;;7.97;4.65;;;12.50;71.30;;;;;;5049049;28;20033;-76
2022/10/03 06:33:01;;;;;;;8.88;4.32;;;12.60;71.50;;;;;;5040096;28;20037;-77
2022/10/03 06:35:45;;;;;;;8.57;3.38;;;12.70;71.40;;;;;;5025919;28;20116;-77
2022/10/03 06:38:35;;;;;;;12.20;4.18;;;12.70;71.10;;;;;;5042762;28;20064;-74
2022/10/03 06:41:32;;;;;;;6.93;3.42;;;12.70;71.20;;;;;;5044591;28;20032;-73
2022/10/03 06:44:36;;;;;;;7.30;3.13;;;12.70;71.40;;;;;;5048459;28;20485;-76
2022/10/03 06:47:07;;;;;;;6.03;3.00;;;12.70;71.40;;;;;;5013591;28;20072;-75
2022/10/03 06:49:48;;;;;;;7.38;3.40;;;12.60;71.00;;;;;;5042757;28;20071;-74
2022/10/03 06:52:24;;;;;;;9.05;2.92;;;12.70;71.20;;;;;;5049738;28;20933;-76
2022/10/03 06:55:10;;;;;;;9.35;3.50;;;12.60;71.00;;;;;;5043437;28;20060;-77
2022/10/03 06:58:16;;;;;;;7.72;3.15;;;12.60;71.30;;;;;;5048157;28;20043;-75
2022/10/03 07:00:51;;;;;;;8.18;3.08;;;12.60;71.30;;;;;;5048240;28;20090;-76
2022/10/03 07:03:44;;;;;;;6.28;2.80;;;12.60;71.20;;;;;;5044103;28;20021;-75
2022/10/03 07:06:12;;;;;;;;;;;12.60;71.40;;;;;;5042079;28;20017;-76
2022/10/03 07:08:58;;;;;;;6.88;3.05;;;12.50;71.10;;;;;;5045883;28;19943;-75
2022/10/03 07:11:39;;;;;;;5.90;4.00;;;12.50;71.00;;;;;;5047912;28;20109;-74
2022/10/03 07:14:44;;;;;;;6.35;3.42;;;12.50;71.10;;;;;;5050688;28;20051;-75
2022/10/03 07:17:37;;;;;;;10.50;3.92;;;12.50;71.10;;;;;;5046002;28;20033;-75
2022/10/03 07:20:24;;;;;;;10.43;2.75;;;12.50;71.00;;;;;;5046071;28;20523;-75
2022/10/03 07:23:05;;;;;;;6.78;3.55;;;12.60;71.10;;;;;;5048448;28;20680;-76
2022/10/03 07:26:12;;;;;;;7.00;3.05;;;12.60;71.00;;;;;;5049893;28;20055;-78
2022/10/03 07:29:18;;;;;;;8.30;3.20;;;12.60;71.30;;;;;;5025881;28;20072;-78
2022/10/03 07:32:18;;;;;;;8.68;3.17;;;12.80;71.60;;;;;;5033071;28;20048;-76
2022/10/03 07:35:10;;;;;;;8.02;3.50;;;12.90;71.50;;;;;;5043491;28;20113;-79
2022/10/03 07:41:13;;;;;;;5.82;3.00;;;13.20;71.40;;;;;;5047042;28;20070;-76
2022/10/03 07:44:01;;;;;;;8.63;3.72;;;13.40;71.30;;;;;;5042166;28;20590;-75
2022/10/03 07:46:53;;;;;;;9.10;4.15;;;13.60;71.30;;;;;;5052972;28;20473;-77
2022/10/03 07:49:28;;;;;;;5.63;3.47;;;13.70;71.10;;;;;;5050119;28;20487;-76
2022/10/03 07:52:24;;;;;;;8.35;3.17;;;13.90;71.20;;;;;;5043836;28;20145;-77
2022/10/03 07:55:28;;;;;;;6.60;3.22;;;13.90;70.80;;;;;;5045977;28;20037;-78
2022/10/03 07:58:18;;;;;;;;;;;14.00;70.50;;;;;;5047017;28;20036;-79
2022/10/03 08:01:13;;;;;;;12.30;4.22;;;14.00;70.30;;;;;;5041767;28;19919;-75
2022/10/03 08:04:14;;;;;;;8.63;3.17;;;14.00;70.10;;;;;;5045278;28;20029;-80
2022/10/03 08:07:09;;;;;;;7.95;2.80;;;14.00;70.10;;;;;;5034294;28;20314;-75
2022/10/03 08:09:42;;;;;;;9.50;3.55;;;14.00;70.10;;;;;;5028039;28;20051;-75
2022/10/03 08:12:47;;;;;;;10.25;2.97;;;13.90;69.80;;;;;;5042238;28;20048;-76
2022/10/03 08:15:30;;;;;;;8.32;3.78;;;13.90;69.80;;;;;;5041338;28;20306;-76
2022/10/03 08:18:15;;;;;;;;;;;13.90;69.80;;;;;;5030647;28;20533;-77
2022/10/03 08:20:46;;;;;;;5.18;2.88;;;13.90;69.80;;;;;;5036003;28;20257;-76
2022/10/03 08:24:06;;;;;;;6.38;2.70;;;13.90;69.70;;;;;;5053517;28;20418;-75
2022/10/03 08:26:53;;;;;;;6.90;3.42;;;13.90;69.70;;;;;;5032313;28;20037;-79
2022/10/03 08:29:44;;;;;;;7.75;2.83;;;13.90;69.70;;;;;;5022812;28;20041;-80
2022/10/03 08:32:40;;;;;;;8.68;2.70;;;14.00;69.70;;;;;;5047998;28;20490;-77
2022/10/03 08:35:21;;;;;;;6.35;2.72;;;14.10;69.70;;;;;;5052589;28;20041;-77
2022/10/03 08:38:32;;;;;;;9.93;3.05;;;14.20;69.60;;;;;;5044765;28;20092;-76
2022/10/03 08:41:07;;;;;;;7.93;2.78;;;14.30;69.60;;;;;;5022271;28;20493;-76
2022/10/03 08:44:14;;;;;;;5.63;2.65;;;14.40;69.50;;;;;;5023177;28;20044;-75
2022/10/03 08:47:07;;;;;;;12.82;2.80;;;14.50;69.40;;;;;;5046820;28;20087;-76
2022/10/03 08:50:00;;;;;;;6.35;3.15;;;14.70;69.50;;;;;;5042991;28;20017;-78
2022/10/03 08:52:55;;;;;;;9.88;3.67;;;14.90;69.60;;;;;;5047590;28;20063;-77
2022/10/03 08:55:44;;;;;;;9.20;2.92;;;14.90;69.30;;;;;;5028862;28;20053;-77
2022/10/03 08:58:42;;;;;;;5.35;2.72;;;15.10;69.30;;;;;;5047134;28;20047;-75
2022/10/03 09:01:33;;;;;;;7.63;2.97;;;15.20;69.20;;;;;;5049974;28;20092;-75
2022/10/03 09:04:30;;;;;;;12.27;3.20;;;15.30;69.20;;;;;;5046079;28;20493;-78
2022/10/03 09:07:25;;;;;;;9.73;3.15;;;15.40;69.20;;;;;;5046487;28;20283;-75
2022/10/03 09:10:29;;;;;;;7.70;2.83;;;15.60;69.40;;;;;;5049122;28;20033;-75
2022/10/03 09:13:01;;;;;;;9.27;3.00;;;15.70;69.30;;;;;;5044197;28;20045;-75
2022/10/03 09:15:27;;;;;;;9.17;2.47;;;15.80;69.10;;;;;;5048257;28;20052;-74
2022/10/03 09:18:08;;;;;;;12.00;3.00;;;16.00;69.30;;;;;;5043941;28;20045;-75
2022/10/03 09:21:18;;;;;;;6.47;2.80;;;16.10;69.30;;;;;;5045969;28;20564;-74
2022/10/03 09:23:50;;;;;;;9.65;3.38;;;16.30;69.40;;;;;;5048352;28;20037;-75
2022/10/03 09:26:35;;;;;;;8.23;3.20;;;16.40;69.30;;;;;;5043591;28;20034;-74
2022/10/03 09:29:26;;;;;;;9.68;3.30;;;16.50;69.20;;;;;;5044208;28;20032;-75
2022/10/03 09:32:17;;;;;;;6.90;2.63;;;16.60;69.20;;;;;;5021963;28;20045;-74
2022/10/03 09:34:53;;;;;;;10.07;2.72;;;16.70;69.20;;;;;;5045116;28;20029;-75
2022/10/03 09:37:50;;;;;;;7.97;4.57;;;16.70;69.10;;;;;;5047523;28;20031;-74
2022/10/03 09:40:47;;;;;;;4.97;2.33;;;16.80;69.20;;;;;;5048673;28;20263;-75
2022/10/03 09:43:42;;;;;;;7.93;2.55;;;16.90;69.30;;;;;;5051668;28;20036;-75
2022/10/03 09:50:06;;;;;;;8.07;2.40;;;16.90;69.10;;;;;;5049165;28;20398;-75
2022/10/03 09:53:01;;;;;;;7.45;2.95;;;17.00;69.20;;;;;;5041732;28;20063;-74
2022/10/03 09:55:34;;;;;;;8.85;2.88;;;17.10;69.30;;;;;;5045294;28;20117;-75
2022/10/03 09:58:16;;;;;;;;;;;17.10;69.20;;;;;;5036382;28;20365;-77
2022/10/03 10:01:09;;;;;;;11.02;2.58;;;17.20;69.40;;;;;;5042659;28;19935;-76
2022/10/03 10:04:06;;;;;;;4.53;2.20;;;17.20;69.20;;;;;;5042503;28;20045;-76
2022/10/03 10:07:14;;;;;;;5.97;2.58;;;17.30;69.30;;;;;;5045402;28;20037;-76
2022/10/03 10:10:08;;;;;;;10.20;3.13;;;17.30;69.20;;;;;;5048034;28;20093;-76
2022/10/03 10:13:12;;;;;;;7.78;2.58;;;17.40;69.20;;;;;;5047402;28;20045;-75
2022/10/03 10:16:09;;;;;;;5.93;2.50;;;17.60;69.50;;;;;;5046846;28;20059;-76
2022/10/03 10:18:41;;;;;;;20.92;3.40;;;17.70;69.40;;;;;;5058319;28;20041;-76
2022/10/03 10:21:25;;;;;;;9.07;2.45;;;17.80;69.30;;;;;;5045585;28;20040;-75
2022/10/03 10:24:25;;;;;;;5.38;2.00;;;17.90;69.30;;;;;;5037639;28;20497;-76
2022/10/03 10:27:18;;;;;;;11.80;4.47;;;18.00;69.30;;;;;;5044425;28;20091;-75
2022/10/03 10:30:16;;;;;;;5.63;2.40;;;18.10;69.30;;;;;;5045500;28;20033;-76
2022/10/03 10:33:28;;;;;;;6.93;1.75;;;18.20;69.30;;;;;;5043460;28;20041;-76
2022/10/03 10:36:31;;;;;;;8.63;3.45;;;18.30;69.30;;;;;;5023685;28;20041;-76
2022/10/03 10:39:30;;;;;;;6.97;2.28;;;18.40;69.20;;;;;;5022494;28;20036;-76
2022/10/03 10:41:59;;;;;;;6.53;2.20;;;18.60;69.30;;;;;;5039660;28;20030;-76
2022/10/03 10:45:12;;;;;;;6.60;1.83;;;18.70;69.20;;;;;;5050927;28;20025;-77
2022/10/03 10:48:20;;;;;;;7.32;2.60;;;18.90;69.20;;;;;;5032104;28;20040;-78
2022/10/03 10:51:04;;;;;;;3.67;1.65;;;19.10;69.10;;;;;;5034340;28;20047;-77
2022/10/03 10:54:07;;;;;;;4.45;1.80;;;19.20;69.00;;;;;;5059214;28;20044;-77
2022/10/03 10:57:08;;;;;;;6.30;2.47;;;19.40;69.00;;;;;;5041930;28;20046;-77
2022/10/03 11:00:08;;;;;;;6.75;2.40;;;19.60;68.90;;;;;;5040029;28;20028;-74
2022/10/03 11:03:12;;;;;;;3.25;1.65;;;19.90;68.90;;;;;;5055487;28;20048;-77
2022/10/03 11:06:26;;;;;;;6.35;2.20;;;20.00;68.60;;;;;;5028470;28;20037;-77
2022/10/03 11:09:33;;;;;;;4.93;1.73;;;20.20;68.50;;;;;;5031231;28;20493;-77
2022/10/03 11:12:48;;;;;;;4.88;1.40;;;20.40;68.50;;;;;;5048854;28;20171;-77
2022/10/03 11:15:35;;;;;;;6.30;1.60;;;20.50;68.20;;;;;;5045294;28;20036;-76
2022/10/03 11:18:03;;;;;;;4.70;1.40;;;20.70;68.10;;;;;;5047103;28;20037;-76
2022/10/03 11:20:50;;;;;;;5.68;1.85;;;20.80;68.00;;;;;;5053550;28;20388;-75
2022/10/03 11:23:50;;;;;;;4.60;1.40;;;20.90;67.70;;;;;;5043242;28;20135;-75
2022/10/03 11:26:55;;;;;;;6.03;1.65;;;21.10;67.60;;;;;;5053797;28;20033;-76
2022/10/03 11:29:41;;;;;;;4.47;1.50;;;21.20;67.40;;;;;;5049555;28;20124;-77
2022/10/03 11:32:46;;;;;;;4.88;1.88;;;21.20;67.30;;;;;;5042875;28;20083;-75
2022/10/03 11:35:16;;;;;;;7.68;1.75;;;21.30;67.00;;;;;;5045125;28;20098;-75
2022/10/03 11:38:21;;;;;;;6.07;1.48;;;21.40;67.00;;;;;;5048462;28;20029;-75
2022/10/03 11:41:24;;;;;;;3.90;1.80;;;21.40;66.70;;;;;;5007291;28;20569;-76
2022/10/03 11:44:12;;;;;;;5.45;1.92;;;21.50;66.50;;;;;;5034203;28;20108;-77
2022/10/03 11:47:15;;;;;;;5.93;1.33;;;21.60;66.40;;;;;;5052576;28;20030;-76
2022/10/03 11:50:11;;;;;;;4.03;1.50;;;21.70;66.20;;;;;;5050036;28;20060;-75
2022/10/03 11:53:10;;;;;;;3.85;1.60;;;21.80;66.20;;;;;;5048883;28;20041;-76
2022/10/03 11:55:44;;;;;;;4.43;1.30;;;21.90;66.00;;;;;;5040954;28;20054;-75
2022/10/03 11:58:24;;;;;;;3.83;1.73;;;22.00;66.00;;;;;;5052288;28;20037;-76
2022/10/03 12:01:23;;;;;;;4.22;1.20;;;22.10;65.70;;;;;;5048123;28;20029;-76
2022/10/03 12:03:57;;;;;;;3.70;1.15;;;22.20;65.50;;;;;;5040375;28;20037;-75
2022/10/03 12:10:27;;;;;;;7.65;2.75;;;22.50;65.30;;;;;;5018450;28;20041;-75
2022/10/03 12:12:56;;;;;;;4.03;1.40;;;22.60;65.10;;;;;;5025723;28;20048;-76
2022/10/03 12:15:31;;;;;;;5.95;1.73;;;22.70;65.30;;;;;;5039891;28;20049;-76
2022/10/03 12:18:15;;;;;;;5.13;1.80;;;22.70;65.00;;;;;;5026245;28;20044;-76
2022/10/03 12:21:10;;;;;;;2.92;1.63;;;22.80;64.80;;;;;;5053882;28;20090;-76
2022/10/03 12:23:54;;;;;;;3.13;1.27;;;23.00;64.80;;;;;;5050912;28;20075;-76
2022/10/03 12:26:31;;;;;;;2.53;1.30;;;23.00;64.60;;;;;;5033969;28;20055;-76
2022/10/03 12:28:57;;;;;;;3.53;1.30;;;23.20;64.70;;;;;;5028449;28;20095;-77
2022/10/03 12:31:40;;;;;;;3.15;1.23;;;23.20;64.70;;;;;;5039805;28;20029;-75
2022/10/03 12:34:28;;;;;;;4.63;1.20;;;23.30;64.40;;;;;;5048286;28;20039;-75
2022/10/03 12:37:09;;;;;;;4.15;1.52;;;23.40;64.40;;;;;;5043631;28;20708;-76
2022/10/03 12:39:45;;;;;;;4.20;1.63;;;23.40;64.20;;;;;;5015636;28;20034;-76
2022/10/03 12:42:29;;;;;;;4.13;1.15;;;23.50;64.20;;;;;;5050912;28;20040;-76
2022/10/03 12:45:23;;;;;;;2.10;1.10;;;23.60;63.70;;;;;;5045211;28;20059;-75
2022/10/03 12:48:21;;;;;;;3.90;1.60;;;23.70;63.70;;;;;;5029225;28;20043;-77
2022/10/03 12:51:00;;;;;;;2.80;1.27;;;23.80;63.60;;;;;;5031356;28;20506;-75
2022/10/03 12:53:48;;;;;;;2.65;1.60;;;23.90;63.60;;;;;;5029253;28;20045;-76
2022/10/03 12:56:33;;;;;;;4.65;1.67;;;24.00;63.60;;;;;;5046563;28;20088;-74
2022/10/03 12:59:17;;;;;;;4.82;1.30;;;24.00;63.20;;;;;;5041618;28;20370;-75
2022/10/03 13:02:16;;;;;;;3.72;1.08;;;24.10;63.10;;;;;;5049591;28;20115;-76
2022/10/03 13:05:06;;;;;;;3.50;1.50;;;24.10;62.70;;;;;;5032976;28;20082;-75
2022/10/03 13:07:51;;;;;;;3.00;1.65;;;24.20;63.00;;;;;;5045455;28;20021;-77
2022/10/03 13:10:40;;;;;;;7.07;1.90;;;24.30;62.80;;;;;;5049780;28;20029;-75
2022/10/03 13:13:39;;;;;;;3.97;1.20;;;24.30;62.60;;;;;;5053031;28;20036;-77
2022/10/03 13:16:30;;;;;;;4.55;1.30;;;24.40;62.50;;;;;;5043454;28;20457;-75
2022/10/03 13:19:11;;;;;;;3.53;1.33;;;24.50;62.40;;;;;;5045678;28;20037;-75
2022/10/03 13:22:07;;;;;;;3.25;1.20;;;24.60;62.50;;;;;;5038804;28;20265;-76
2022/10/03 13:24:41;;;;;;;4.53;1.60;;;24.70;62.50;;;;;;5052409;28;20040;-75
2022/10/03 13:27:20;;;;;;;4.38;1.40;;;24.70;62.20;;;;;;5045575;28;20025;-76
2022/10/03 13:29:53;;;;;;;2.90;1.00;;;24.80;61.80;;;;;;5049148;28;20042;-74
2022/10/03 13:32:28;;;;;;;;;;;24.90;61.90;;;;;;5017373;28;20042;-76
2022/10/03 13:38:10;;;;;;;3.72;1.35;;;25.00;61.90;;;;;;5045237;28;20035;-76
2022/10/03 13:40:42;;;;;;;3.33;1.23;;;25.00;61.80;;;;;;5047132;28;20044;-76
2022/10/03 13:43:20;;;;;;;3.42;1.35;;;25.00;61.70;;;;;;5060337;28;20101;-77
2022/10/03 13:45:55;;;;;;;6.28;2.03;;;25.10;61.50;;;;;;5049560;28;20507;-77
2022/10/03 13:48:28;;;;;;;6.65;2.42;;;25.10;61.40;;;;;;5027997;28;20082;-77
2022/10/03 13:51:05;;;;;;;2.70;1.45;;;25.20;61.40;;;;;;5047707;28;20827;-75
2022/10/03 13:53:57;;;;;;;3.00;1.30;;;25.20;61.20;;;;;;5046719;28;20048;-77
2022/10/03 13:56:36;;;;;;;4.30;1.58;;;25.20;60.60;;;;;;5040686;28;20114;-78
2022/10/03 13:59:19;;;;;;;3.35;1.30;;;25.20;60.50;;;;;;5043907;28;20356;-76
2022/10/03 14:01:58;;;;;;;3.83;1.40;;;25.20;60.60;;;;;;5050318;28;20145;-77
2022/10/03 14:05:00;;;;;;;3.90;1.65;;;25.10;60.60;;;;;;5047539;28;20400;-76
2022/10/03 14:07:51;;;;;;;5.70;1.75;;;25.10;60.30;;;;;;5039036;28;20087;-79
2022/10/03 14:10:29;;;;;;;3.60;1.58;;;25.00;60.10;;;;;;5043967;28;20025;-75
2022/10/03 14:13:43;;;;;;;6.47;1.38;;;25.00;60.40;;;;;;5042994;28;20098;-74
2022/10/03 14:16:09;;;;;;;4.10;1.52;;;25.00;60.10;;;;;;5047848;28;20025;-75
2022/10/03 14:18:52;;;;;;;4.72;1.55;;;25.00;60.40;;;;;;5047460;28;20052;-75
2022/10/03 14:21:34;;;;;;;6.60;1.70;;;25.00;60.30;;;;;;5049724;28;20499;-74
2022/10/03 14:24:37;;;;;;;4.30;1.55;;;25.00;60.00;;;;;;5045043;28;20090;-75
2022/10/03 14:27:18;;;;;;;2.10;1.38;;;25.00;60.00;;;;;;5045947;28;20574;-75
2022/10/03 14:30:02;;;;;;;2.75;1.30;;;25.00;60.00;;;;;;5047795;28;20205;-75
2022/10/03 14:32:35;;;;;;;2.40;1.42;;;25.00;59.90;;;;;;5047646;28;20048;-75
2022/10/03 14:35:43;;;;;;;3.58;1.33;;;24.90;59.70;;;;;;5050450;28;20032;-78
2022/10/03 14:41:24;;;;;;;4.05;1.35;;;24.80;59.60;;;;;;5046139;28;20052;-77
2022/10/03 14:43:59;;;;;;;2.97;1.40;;;24.80;60.00;;;;;;5053258;28;20032;-78
2022/10/03 14:46:30;;;;;;;3.67;1.35;;;24.80;59.90;;;;;;5050488;28;20036;-77
2022/10/03 14:49:05;;;;;;;3.67;1.52;;;24.70;59.60;;;;;;5047502;28;20033;-79
2022/10/03 14:51:38;;;;;;;5.65;1.50;;;24.60;59.60;;;;;;5038298;28;20032;-76
2022/10/03 14:54:20;;;;;;;;;;;24.60;59.60;;;;;;5039563;28;20076;-73
2022/10/03 14:56:54;;;;;;;4.70;1.08;;;24.60;59.80;;;;;;5047799;28;20339;-82
2022/10/03 14:59:33;;;;;;;1.52;1.15;;;24.60;59.90;;;;;;5051114;28;20036;-77
2022/10/03 15:02:16;;;;;;;2.55;1.10;;;24.50;59.20;;;;;;5051130;28;20021;-77